createdAt,value
2018-11-27T00:00:08.609Z,0.00
2018-11-27T00:01:08.854Z,0.00
2018-11-27T00:02:08.928Z,0.00
2018-11-27T00:03:09.124Z,0.00
2018-11-27T00:04:09.316Z,0.00
2018-11-27T00:05:09.505Z,0.00
2018-11-27T00:06:09.744Z,0.00
2018-11-27T00:07:09.815Z,0.00
2018-11-27T00:08:09.983Z,0.00
2018-11-27T00:09:10.179Z,0.00
2018-11-27T00:10:10.353Z,0.00
2018-11-27T00:11:10.535Z,0.00
2018-11-27T00:12:10.713Z,0.00
2018-11-27T00:13:10.902Z,0.00
2018-11-27T00:14:11.077Z,0.00
2018-11-27T00:15:11.264Z,0.00
2018-11-27T00:16:11.447Z,0.00
2018-11-27T00:17:11.626Z,0.00
2018-11-27T00:18:11.810Z,0.00
2018-11-27T00:19:11.989Z,0.00
2018-11-27T00:20:12.163Z,0.00
2018-11-27T00:21:12.347Z,0.00
2018-11-27T00:22:12.530Z,0.00
2018-11-27T00:23:12.712Z,0.00
2018-11-27T00:24:12.893Z,0.00
2018-11-27T00:25:13.076Z,0.00
2018-11-27T00:26:13.266Z,0.00
2018-11-27T00:27:13.442Z,0.00
2018-11-27T00:28:13.620Z,0.00
2018-11-27T00:29:13.794Z,0.00
2018-11-27T00:30:13.986Z,0.00
2018-11-27T00:31:14.155Z,0.00
2018-11-27T00:32:14.341Z,0.00
2018-11-27T00:33:14.516Z,0.00
2018-11-27T00:34:14.720Z,0.00
2018-11-27T00:35:14.888Z,0.00
2018-11-27T00:36:15.066Z,0.00
2018-11-27T00:37:15.251Z,0.00
2018-11-27T00:38:15.430Z,0.00
2018-11-27T00:39:15.606Z,0.00
2018-11-27T00:40:15.790Z,0.00
2018-11-27T00:41:15.965Z,0.00
2018-11-27T00:42:16.143Z,0.00
2018-11-27T00:43:16.333Z,0.00
2018-11-27T00:44:16.499Z,0.00
2018-11-27T00:45:16.688Z,0.00
2018-11-27T00:46:16.872Z,0.00
2018-11-27T00:47:17.047Z,0.00
2018-11-27T00:48:17.230Z,0.00
2018-11-27T00:49:17.403Z,0.00
2018-11-27T00:50:17.586Z,0.00
2018-11-27T00:51:17.756Z,0.00
2018-11-27T00:52:17.950Z,0.00
2018-11-27T00:53:18.133Z,0.00
2018-11-27T00:54:18.319Z,0.00
2018-11-27T00:55:18.497Z,0.00
2018-11-27T00:56:18.677Z,0.00
2018-11-27T00:57:18.851Z,0.00
2018-11-27T00:58:19.037Z,0.00
2018-11-27T00:59:19.221Z,0.00
2018-11-27T01:00:19.400Z,0.00
2018-11-27T01:01:19.583Z,0.00
2018-11-27T01:02:19.762Z,0.00
2018-11-27T01:03:19.942Z,0.00
2018-11-27T01:04:20.127Z,0.00
2018-11-27T01:05:20.300Z,0.00
2018-11-27T01:06:20.483Z,0.00
2018-11-27T01:07:20.663Z,0.00
2018-11-27T01:08:20.841Z,0.00
2018-11-27T01:09:21.023Z,0.00
2018-11-27T01:10:21.202Z,0.00
2018-11-27T01:11:21.379Z,0.00
2018-11-27T01:12:21.563Z,0.00
2018-11-27T01:13:21.747Z,0.00
2018-11-27T01:14:21.925Z,0.00
2018-11-27T01:15:22.106Z,0.00
2018-11-27T01:16:22.289Z,0.00
2018-11-27T01:17:22.465Z,0.00
2018-11-27T01:18:22.655Z,0.00
2018-11-27T01:19:22.828Z,0.00
2018-11-27T01:20:23.010Z,0.00
2018-11-27T01:21:23.190Z,0.00
2018-11-27T01:22:23.370Z,0.00
2018-11-27T01:23:23.563Z,0.00
2018-11-27T01:24:23.736Z,0.00
2018-11-27T01:25:23.915Z,0.00
2018-11-27T01:26:24.092Z,0.00
2018-11-27T01:27:24.276Z,0.00
2018-11-27T01:28:24.456Z,0.00
2018-11-27T01:29:24.636Z,0.00
2018-11-27T01:30:24.817Z,0.00
2018-11-27T01:31:24.999Z,0.00
2018-11-27T01:32:25.173Z,0.00
2018-11-27T01:33:25.356Z,0.00
2018-11-27T01:34:25.525Z,0.00
2018-11-27T01:35:25.714Z,0.00
2018-11-27T01:36:25.893Z,0.00
2018-11-27T01:37:26.067Z,0.00
2018-11-27T01:38:26.250Z,0.00
2018-11-27T01:39:26.431Z,0.00
2018-11-27T01:40:26.602Z,0.00
2018-11-27T01:41:26.790Z,0.00
2018-11-27T01:42:26.967Z,0.00
2018-11-27T01:43:27.792Z,0.00
2018-11-27T01:44:27.324Z,0.00
2018-11-27T01:45:27.499Z,0.00
2018-11-27T01:46:27.686Z,0.00
2018-11-27T01:47:27.866Z,0.00
2018-11-27T01:48:28.051Z,0.00
2018-11-27T01:49:28.234Z,0.00
2018-11-27T01:50:28.414Z,0.00
2018-11-27T01:51:28.601Z,0.00
2018-11-27T01:52:28.825Z,0.00
2018-11-27T01:53:28.960Z,0.00
2018-11-27T01:54:29.140Z,0.00
2018-11-27T01:55:29.322Z,0.00
2018-11-27T01:56:29.508Z,0.00
2018-11-27T01:57:29.691Z,0.00
2018-11-27T01:58:29.871Z,0.00
2018-11-27T01:59:30.056Z,0.00
2018-11-27T02:00:30.225Z,0.00
2018-11-27T02:01:30.405Z,0.00
2018-11-27T02:02:30.581Z,0.00
2018-11-27T02:03:30.760Z,0.00
2018-11-27T02:04:30.948Z,0.00
2018-11-27T02:05:31.132Z,0.00
2018-11-27T02:06:31.303Z,0.00
2018-11-27T02:07:31.480Z,0.00
2018-11-27T02:08:31.661Z,0.00
2018-11-27T02:09:31.845Z,0.00
2018-11-27T02:10:32.020Z,0.00
2018-11-27T02:11:32.212Z,0.00
2018-11-27T02:12:32.391Z,0.00
2018-11-27T02:13:32.570Z,0.00
2018-11-27T02:14:32.749Z,0.00
2018-11-27T02:15:32.929Z,0.00
2018-11-27T02:16:33.110Z,0.00
2018-11-27T02:17:33.291Z,0.00
2018-11-27T02:18:33.469Z,0.00
2018-11-27T02:19:33.647Z,0.00
2018-11-27T02:20:33.831Z,0.00
2018-11-27T02:21:34.010Z,0.00
2018-11-27T02:22:34.238Z,0.00
2018-11-27T02:23:34.384Z,0.00
2018-11-27T02:24:34.560Z,0.00
2018-11-27T02:25:34.730Z,0.00
2018-11-27T02:26:34.924Z,0.00
2018-11-27T02:27:35.105Z,0.00
2018-11-27T02:28:35.293Z,0.00
2018-11-27T02:29:35.470Z,0.00
2018-11-27T02:30:35.645Z,0.00
2018-11-27T02:31:35.826Z,0.00
2018-11-27T02:32:36.003Z,0.00
2018-11-27T02:33:36.188Z,0.00
2018-11-27T02:34:36.368Z,0.00
2018-11-27T02:35:36.549Z,0.00
2018-11-27T02:36:36.743Z,0.00
2018-11-27T02:37:36.928Z,0.00
2018-11-27T02:38:37.103Z,0.00
2018-11-27T02:39:37.280Z,0.00
2018-11-27T02:40:37.471Z,0.00
2018-11-27T02:41:37.640Z,0.00
2018-11-27T02:42:37.827Z,0.00
2018-11-27T02:43:38.010Z,0.00
2018-11-27T02:44:38.214Z,0.00
2018-11-27T02:45:38.392Z,0.00
2018-11-27T02:46:38.561Z,0.00
2018-11-27T02:47:38.737Z,0.00
2018-11-27T02:48:38.923Z,0.00
2018-11-27T02:49:39.098Z,0.00
2018-11-27T02:50:39.280Z,0.00
2018-11-27T02:51:39.451Z,0.00
2018-11-27T02:52:39.624Z,0.00
2018-11-27T02:53:39.808Z,0.00
2018-11-27T02:54:39.989Z,0.00
2018-11-27T02:55:40.169Z,0.00
2018-11-27T02:56:40.349Z,0.00
2018-11-27T02:57:40.532Z,0.00
2018-11-27T02:58:40.707Z,0.00
2018-11-27T02:59:40.896Z,0.00
2018-11-27T03:00:41.081Z,0.00
2018-11-27T03:01:41.258Z,0.00
2018-11-27T03:02:41.439Z,0.00
2018-11-27T03:03:41.617Z,0.00
2018-11-27T03:04:41.811Z,0.00
2018-11-27T03:05:41.985Z,0.00
2018-11-27T03:06:42.172Z,0.00
2018-11-27T03:07:42.351Z,0.00
2018-11-27T03:08:42.529Z,0.00
2018-11-27T03:09:42.709Z,0.00
2018-11-27T03:10:42.893Z,0.00
2018-11-27T03:11:43.070Z,0.00
2018-11-27T03:12:43.252Z,0.00
2018-11-27T03:13:43.434Z,0.00
2018-11-27T03:14:43.611Z,0.00
2018-11-27T03:15:43.791Z,0.00
2018-11-27T03:16:43.979Z,0.00
2018-11-27T03:17:44.159Z,0.00
2018-11-27T03:18:44.349Z,0.00
2018-11-27T03:19:44.517Z,0.00
2018-11-27T03:20:44.708Z,0.00
2018-11-27T03:21:44.884Z,0.00
2018-11-27T03:22:45.064Z,0.00
2018-11-27T03:23:45.245Z,0.00
2018-11-27T03:24:45.421Z,0.00
2018-11-27T03:25:45.607Z,0.00
2018-11-27T03:26:45.780Z,0.00
2018-11-27T03:27:45.967Z,0.00
2018-11-27T03:28:46.151Z,0.00
2018-11-27T03:29:46.345Z,0.00
2018-11-27T03:30:46.511Z,0.00
2018-11-27T03:31:46.786Z,0.00
2018-11-27T03:32:46.871Z,0.00
2018-11-27T03:33:47.052Z,0.00
2018-11-27T03:34:47.234Z,0.00
2018-11-27T03:35:47.419Z,0.00
2018-11-27T03:36:47.593Z,0.00
2018-11-27T03:37:47.812Z,0.00
2018-11-27T03:38:47.952Z,0.00
2018-11-27T03:39:48.133Z,0.00
2018-11-27T03:40:48.313Z,0.00
2018-11-27T03:41:48.553Z,0.00
2018-11-27T03:42:48.699Z,0.00
2018-11-27T03:43:48.882Z,0.00
2018-11-27T03:44:49.074Z,0.00
2018-11-27T03:45:49.246Z,0.00
2018-11-27T03:46:49.424Z,0.00
2018-11-27T03:47:49.602Z,0.00
2018-11-27T03:48:49.786Z,0.00
2018-11-27T03:49:49.963Z,0.00
2018-11-27T03:50:50.138Z,0.00
2018-11-27T03:51:50.324Z,0.00
2018-11-27T03:52:50.508Z,0.00
2018-11-27T03:53:50.688Z,0.00
2018-11-27T03:54:50.870Z,0.00
2018-11-27T03:55:51.041Z,0.00
2018-11-27T03:56:51.224Z,0.00
2018-11-27T03:57:51.403Z,0.00
2018-11-27T03:58:51.581Z,0.00
2018-11-27T03:59:51.766Z,0.00
2018-11-27T04:00:51.949Z,0.00
2018-11-27T04:01:52.136Z,0.00
2018-11-27T04:02:52.317Z,0.00
2018-11-27T04:03:52.499Z,0.00
2018-11-27T04:04:52.688Z,0.00
2018-11-27T04:05:52.863Z,0.00
2018-11-27T04:06:53.039Z,0.00
2018-11-27T04:07:53.226Z,0.00
2018-11-27T04:08:53.402Z,0.00
2018-11-27T04:09:53.582Z,0.00
2018-11-27T04:10:53.763Z,0.00
2018-11-27T04:11:53.943Z,0.00
2018-11-27T04:12:54.125Z,0.00
2018-11-27T04:13:54.301Z,0.00
2018-11-27T04:14:54.483Z,0.00
2018-11-27T04:15:54.665Z,0.00
2018-11-27T04:16:54.842Z,0.00
2018-11-27T04:17:55.024Z,0.00
2018-11-27T04:18:55.201Z,0.00
2018-11-27T04:19:55.381Z,0.00
2018-11-27T04:20:55.562Z,0.00
2018-11-27T04:21:55.754Z,0.00
2018-11-27T04:22:55.950Z,0.00
2018-11-27T04:23:56.113Z,0.00
2018-11-27T04:24:56.294Z,0.00
2018-11-27T04:25:56.474Z,0.00
2018-11-27T04:26:56.652Z,0.00
2018-11-27T04:27:56.846Z,0.00
2018-11-27T04:28:57.011Z,0.00
2018-11-27T04:29:57.200Z,0.00
2018-11-27T04:30:57.380Z,0.00
2018-11-27T04:31:57.555Z,0.00
2018-11-27T04:32:57.751Z,0.00
2018-11-27T04:33:57.926Z,0.00
2018-11-27T04:34:58.110Z,0.00
2018-11-27T04:35:58.292Z,0.00
2018-11-27T04:36:58.474Z,0.00
2018-11-27T04:37:59.568Z,0.00
2018-11-27T04:38:58.837Z,0.00
2018-11-27T04:39:59.011Z,0.00
2018-11-27T04:40:59.189Z,0.00
2018-11-27T04:41:59.370Z,0.00
2018-11-27T04:42:59.552Z,0.00
2018-11-27T04:43:59.732Z,0.00
2018-11-27T04:44:59.907Z,0.00
2018-11-27T04:46:00.093Z,0.00
2018-11-27T04:47:00.277Z,0.00
2018-11-27T04:48:00.452Z,0.00
2018-11-27T04:49:00.625Z,0.00
2018-11-27T04:50:00.801Z,0.00
2018-11-27T04:51:00.984Z,0.00
2018-11-27T04:52:01.159Z,0.00
2018-11-27T04:53:01.340Z,0.00
2018-11-27T04:54:01.522Z,0.00
2018-11-27T04:55:01.704Z,0.00
2018-11-27T04:56:01.910Z,0.00
2018-11-27T04:57:02.073Z,0.00
2018-11-27T04:58:02.258Z,0.00
2018-11-27T04:59:02.433Z,0.00
2018-11-27T05:00:02.615Z,0.00
2018-11-27T05:01:02.796Z,0.00
2018-11-27T05:02:02.971Z,0.00
2018-11-27T05:03:03.158Z,0.00
2018-11-27T05:04:03.335Z,0.00
2018-11-27T05:05:03.512Z,0.00
2018-11-27T05:06:03.694Z,0.00
2018-11-27T05:07:03.891Z,0.00
2018-11-27T05:08:04.068Z,0.00
2018-11-27T05:09:04.246Z,0.00
2018-11-27T05:10:04.430Z,0.00
2018-11-27T05:11:04.611Z,0.00
2018-11-27T05:12:04.788Z,0.00
2018-11-27T05:13:04.961Z,0.00
2018-11-27T05:14:05.148Z,0.00
2018-11-27T05:15:05.327Z,0.00
2018-11-27T05:16:05.496Z,0.00
2018-11-27T05:17:05.679Z,0.00
2018-11-27T05:18:05.858Z,0.00
2018-11-27T05:19:06.039Z,0.00
2018-11-27T05:20:06.217Z,0.00
2018-11-27T05:21:06.399Z,0.00
2018-11-27T05:22:06.586Z,0.00
2018-11-27T05:23:06.752Z,0.00
2018-11-27T05:24:06.934Z,0.00
2018-11-27T05:25:07.125Z,0.00
2018-11-27T05:26:07.303Z,0.00
2018-11-27T05:27:07.482Z,0.00
2018-11-27T05:28:07.655Z,0.00
2018-11-27T05:29:07.832Z,0.00
2018-11-27T05:30:08.015Z,0.00
2018-11-27T05:31:08.194Z,0.00
2018-11-27T05:32:08.373Z,0.00
2018-11-27T05:33:08.557Z,0.00
2018-11-27T05:34:08.733Z,0.00
2018-11-27T05:35:08.919Z,0.00
2018-11-27T05:36:09.098Z,0.00
2018-11-27T05:37:09.273Z,0.00
2018-11-27T05:38:09.449Z,0.00
2018-11-27T05:39:09.634Z,0.00
2018-11-27T05:40:09.819Z,0.00
2018-11-27T05:41:09.997Z,0.00
2018-11-27T05:42:10.174Z,0.00
2018-11-27T05:43:10.358Z,0.00
2018-11-27T05:44:10.538Z,0.00
2018-11-27T05:45:10.713Z,0.00
2018-11-27T05:46:10.901Z,0.00
2018-11-27T05:47:11.083Z,0.00
2018-11-27T05:48:11.270Z,0.00
2018-11-27T05:49:11.460Z,0.00
2018-11-27T05:50:11.645Z,0.00
2018-11-27T05:51:11.825Z,0.00
2018-11-27T05:52:12.026Z,0.00
2018-11-27T05:53:12.178Z,0.00
2018-11-27T05:54:12.358Z,0.00
2018-11-27T05:55:12.544Z,0.00
2018-11-27T05:56:12.726Z,0.00
2018-11-27T05:57:12.907Z,0.00
2018-11-27T05:58:13.154Z,0.00
2018-11-27T05:59:13.290Z,0.00
2018-11-27T06:00:13.472Z,0.00
2018-11-27T06:01:13.649Z,0.00
2018-11-27T06:02:13.831Z,0.00
2018-11-27T06:03:14.004Z,0.00
2018-11-27T06:04:14.187Z,0.00
2018-11-27T06:05:14.395Z,0.00
2018-11-27T06:06:14.596Z,0.00
2018-11-27T06:07:14.778Z,0.00
2018-11-27T06:08:14.951Z,0.00
2018-11-27T06:09:15.133Z,0.00
2018-11-27T06:10:15.312Z,0.00
2018-11-27T06:11:15.498Z,0.00
2018-11-27T06:12:15.674Z,0.00
2018-11-27T06:13:15.857Z,0.00
2018-11-27T06:14:16.038Z,0.00
2018-11-27T06:15:16.217Z,0.00
2018-11-27T06:16:16.395Z,0.00
2018-11-27T06:17:16.574Z,0.00
2018-11-27T06:18:16.756Z,0.00
2018-11-27T06:19:16.940Z,0.00
2018-11-27T06:20:17.119Z,0.00
2018-11-27T06:21:17.295Z,0.00
2018-11-27T06:22:17.475Z,0.00
2018-11-27T06:23:17.653Z,0.00
2018-11-27T06:24:17.834Z,0.00
2018-11-27T06:25:18.009Z,0.00
2018-11-27T06:26:18.194Z,0.00
2018-11-27T06:27:18.377Z,0.00
2018-11-27T06:28:18.548Z,0.00
2018-11-27T06:29:18.744Z,0.00
2018-11-27T06:30:18.913Z,0.00
2018-11-27T06:31:19.091Z,0.00
2018-11-27T06:32:21.402Z,0.00
2018-11-27T06:33:19.469Z,0.00
2018-11-27T06:34:19.655Z,0.00
2018-11-27T06:35:19.839Z,0.00
2018-11-27T06:36:20.016Z,0.00
2018-11-27T06:37:20.201Z,0.00
2018-11-27T06:38:20.377Z,0.00
2018-11-27T06:39:20.565Z,0.00
2018-11-27T06:40:20.751Z,0.00
2018-11-27T06:41:20.928Z,0.00
2018-11-27T06:42:21.111Z,0.00
2018-11-27T06:43:21.291Z,0.00
2018-11-27T06:44:21.475Z,0.00
2018-11-27T06:45:21.647Z,0.00
2018-11-27T06:46:21.843Z,0.00
2018-11-27T06:47:22.026Z,0.00
2018-11-27T06:48:22.202Z,0.00
2018-11-27T06:49:22.377Z,0.00
2018-11-27T06:50:22.552Z,0.00
2018-11-27T06:51:22.739Z,0.00
2018-11-27T06:52:22.919Z,0.00
2018-11-27T06:53:23.094Z,0.00
2018-11-27T06:54:23.289Z,0.00
2018-11-27T06:55:23.458Z,0.00
2018-11-27T06:56:23.633Z,0.00
2018-11-27T06:57:23.817Z,0.00
2018-11-27T06:58:23.995Z,0.00
2018-11-27T06:59:24.179Z,0.00
2018-11-27T07:00:24.355Z,0.00
2018-11-27T07:01:24.541Z,0.00
2018-11-27T07:02:24.714Z,0.00
2018-11-27T07:03:24.947Z,0.00
2018-11-27T07:04:25.080Z,0.00
2018-11-27T07:05:25.257Z,0.00
2018-11-27T07:06:25.438Z,0.00
2018-11-27T07:07:25.613Z,0.00
2018-11-27T07:08:25.794Z,0.00
2018-11-27T07:09:25.973Z,0.00
2018-11-27T07:10:26.147Z,5.63
2018-11-27T07:11:26.325Z,5.63
2018-11-27T07:12:26.506Z,5.63
2018-11-27T07:13:26.688Z,5.63
2018-11-27T07:14:26.870Z,5.63
2018-11-27T07:15:27.052Z,5.63
2018-11-27T07:16:27.229Z,5.63
2018-11-27T07:17:27.410Z,5.63
2018-11-27T07:18:27.580Z,5.63
2018-11-27T07:19:27.768Z,5.63
2018-11-27T07:20:27.947Z,5.63
2018-11-27T07:21:28.129Z,5.63
2018-11-27T07:22:28.307Z,5.63
2018-11-27T07:23:28.502Z,5.63
2018-11-27T07:24:28.680Z,5.63
2018-11-27T07:25:28.858Z,5.63
2018-11-27T07:26:29.032Z,11.25
2018-11-27T07:27:29.221Z,11.25
2018-11-27T07:28:29.397Z,11.25
2018-11-27T07:29:29.586Z,11.25
2018-11-27T07:30:29.762Z,11.25
2018-11-27T07:31:29.940Z,11.25
2018-11-27T07:32:30.125Z,11.25
2018-11-27T07:33:30.301Z,11.25
2018-11-27T07:34:30.525Z,11.25
2018-11-27T07:35:30.657Z,11.25
2018-11-27T07:36:30.837Z,11.25
2018-11-27T07:37:31.024Z,11.25
2018-11-27T07:38:31.198Z,16.88
2018-11-27T07:39:31.378Z,16.88
2018-11-27T07:40:31.555Z,16.88
2018-11-27T07:41:31.740Z,16.88
2018-11-27T07:42:31.926Z,16.88
2018-11-27T07:43:32.103Z,16.88
2018-11-27T07:44:32.292Z,16.88
2018-11-27T07:45:32.467Z,22.50
2018-11-27T07:46:32.648Z,22.50
2018-11-27T07:47:32.829Z,22.50
2018-11-27T07:48:33.010Z,22.50
2018-11-27T07:49:33.198Z,22.50
2018-11-27T07:50:33.383Z,22.50
2018-11-27T07:51:33.569Z,22.50
2018-11-27T07:52:33.742Z,22.50
2018-11-27T07:53:33.919Z,22.50
2018-11-27T07:54:34.110Z,22.50
2018-11-27T07:55:34.292Z,28.13
2018-11-27T07:56:34.475Z,28.13
2018-11-27T07:57:34.646Z,28.13
2018-11-27T07:58:34.825Z,28.13
2018-11-27T07:59:35.010Z,28.13
2018-11-27T08:00:35.191Z,33.75
2018-11-27T08:01:35.369Z,33.75
2018-11-27T08:02:35.551Z,33.75
2018-11-27T08:03:35.728Z,39.38
2018-11-27T08:04:35.919Z,39.38
2018-11-27T08:05:36.100Z,45.00
2018-11-27T08:06:36.287Z,45.00
2018-11-27T08:07:36.464Z,45.00
2018-11-27T08:08:36.644Z,45.00
2018-11-27T08:09:36.823Z,45.00
2018-11-27T08:10:37.001Z,50.63
2018-11-27T08:11:37.183Z,56.25
2018-11-27T08:12:37.358Z,56.25
2018-11-27T08:13:37.551Z,56.25
2018-11-27T08:14:37.723Z,61.88
2018-11-27T08:15:37.907Z,61.88
2018-11-27T08:16:38.088Z,67.50
2018-11-27T08:17:38.263Z,67.50
2018-11-27T08:18:38.444Z,67.50
2018-11-27T08:19:38.634Z,73.13
2018-11-27T08:20:38.815Z,78.75
2018-11-27T08:21:38.994Z,78.75
2018-11-27T08:22:39.177Z,84.38
2018-11-27T08:23:39.360Z,78.75
2018-11-27T08:24:39.535Z,78.75
2018-11-27T08:25:39.717Z,78.75
2018-11-27T08:26:39.902Z,78.75
2018-11-27T08:27:40.088Z,78.75
2018-11-27T08:28:40.279Z,78.75
2018-11-27T08:29:40.450Z,84.38
2018-11-27T08:30:40.627Z,84.38
2018-11-27T08:31:40.805Z,90.00
2018-11-27T08:32:40.988Z,90.00
2018-11-27T08:33:41.165Z,90.00
2018-11-27T08:34:41.343Z,90.00
2018-11-27T08:35:41.524Z,84.38
2018-11-27T08:36:41.709Z,84.38
2018-11-27T08:37:41.889Z,84.38
2018-11-27T08:38:42.064Z,84.38
2018-11-27T08:39:42.245Z,84.38
2018-11-27T08:40:42.425Z,84.38
2018-11-27T08:41:42.609Z,84.38
2018-11-27T08:42:42.786Z,78.75
2018-11-27T08:43:43.021Z,84.38
2018-11-27T08:44:43.147Z,84.38
2018-11-27T08:45:43.325Z,84.38
2018-11-27T08:46:43.517Z,84.38
2018-11-27T08:47:43.703Z,84.38
2018-11-27T08:48:43.880Z,84.38
2018-11-27T08:49:44.063Z,78.75
2018-11-27T08:50:44.242Z,78.75
2018-11-27T08:51:44.417Z,78.75
2018-11-27T08:52:46.857Z,84.38
2018-11-27T08:53:44.777Z,90.00
2018-11-27T08:54:44.971Z,90.00
2018-11-27T08:55:45.127Z,90.00
2018-11-27T08:56:45.307Z,84.38
2018-11-27T08:57:45.489Z,84.38
2018-11-27T08:58:45.669Z,78.75
2018-11-27T08:59:45.852Z,84.38
2018-11-27T09:00:46.046Z,78.75
2018-11-27T09:01:46.220Z,78.75
2018-11-27T09:02:46.402Z,78.75
2018-11-27T09:03:46.612Z,78.75
2018-11-27T09:04:46.764Z,78.75
2018-11-27T09:05:46.943Z,78.75
2018-11-27T09:06:47.131Z,84.38
2018-11-27T09:07:47.313Z,84.38
2018-11-27T09:08:47.489Z,84.38
2018-11-27T09:09:47.678Z,84.38
2018-11-27T09:10:47.867Z,90.00
2018-11-27T09:11:48.048Z,90.00
2018-11-27T09:12:48.231Z,90.00
2018-11-27T09:13:48.417Z,95.63
2018-11-27T09:14:48.594Z,95.63
2018-11-27T09:15:48.777Z,95.63
2018-11-27T09:16:48.961Z,95.63
2018-11-27T09:17:49.134Z,101.25
2018-11-27T09:18:49.317Z,106.88
2018-11-27T09:19:49.503Z,112.50
2018-11-27T09:20:49.679Z,123.75
2018-11-27T09:21:49.853Z,129.38
2018-11-27T09:22:50.030Z,135.00
2018-11-27T09:23:50.214Z,140.63
2018-11-27T09:24:50.391Z,146.25
2018-11-27T09:25:50.583Z,140.63
2018-11-27T09:26:50.755Z,146.25
2018-11-27T09:27:50.935Z,140.63
2018-11-27T09:28:51.121Z,146.25
2018-11-27T09:29:51.293Z,140.63
2018-11-27T09:30:51.477Z,140.63
2018-11-27T09:31:51.647Z,140.63
2018-11-27T09:32:51.829Z,140.63
2018-11-27T09:33:52.007Z,146.25
2018-11-27T09:34:52.183Z,157.50
2018-11-27T09:35:52.364Z,157.50
2018-11-27T09:36:52.546Z,157.50
2018-11-27T09:37:52.726Z,163.13
2018-11-27T09:38:52.910Z,168.75
2018-11-27T09:39:53.085Z,174.38
2018-11-27T09:40:53.264Z,174.38
2018-11-27T09:41:53.442Z,180.00
2018-11-27T09:42:53.627Z,191.25
2018-11-27T09:43:53.806Z,196.88
2018-11-27T09:44:53.992Z,202.50
2018-11-27T09:45:54.169Z,202.50
2018-11-27T09:46:54.350Z,196.88
2018-11-27T09:47:54.540Z,202.50
2018-11-27T09:48:54.715Z,208.13
2018-11-27T09:49:54.904Z,219.38
2018-11-27T09:50:55.087Z,225.00
2018-11-27T09:51:55.262Z,225.00
2018-11-27T09:52:55.445Z,225.00
2018-11-27T09:53:55.620Z,230.63
2018-11-27T09:54:55.802Z,230.63
2018-11-27T09:55:55.994Z,236.25
2018-11-27T09:56:56.163Z,236.25
2018-11-27T09:57:59.133Z,236.25
2018-11-27T09:58:56.533Z,241.88
2018-11-27T09:59:56.714Z,241.88
2018-11-27T10:00:56.898Z,247.50
2018-11-27T10:01:57.074Z,253.13
2018-11-27T10:02:57.263Z,264.38
2018-11-27T10:03:57.436Z,275.63
2018-11-27T10:04:57.617Z,286.88
2018-11-27T10:05:57.797Z,286.88
2018-11-27T10:06:57.986Z,292.50
2018-11-27T10:07:58.170Z,281.25
2018-11-27T10:08:58.364Z,286.88
2018-11-27T10:09:58.532Z,292.50
2018-11-27T10:10:58.708Z,292.50
2018-11-27T10:11:58.893Z,303.75
2018-11-27T10:12:59.070Z,309.38
2018-11-27T10:13:59.253Z,315.00
2018-11-27T10:14:59.437Z,315.00
2018-11-27T10:15:59.613Z,320.63
2018-11-27T10:16:59.806Z,320.63
2018-11-27T10:17:59.988Z,326.25
2018-11-27T10:19:00.169Z,337.50
2018-11-27T10:20:00.358Z,343.13
2018-11-27T10:21:00.529Z,348.75
2018-11-27T10:22:00.712Z,360.00
2018-11-27T10:23:00.889Z,360.00
2018-11-27T10:24:01.076Z,365.63
2018-11-27T10:25:01.316Z,382.50
2018-11-27T10:26:01.433Z,405.00
2018-11-27T10:27:01.616Z,433.13
2018-11-27T10:28:01.795Z,444.38
2018-11-27T10:29:01.973Z,461.25
2018-11-27T10:30:02.157Z,472.50
2018-11-27T10:31:02.337Z,489.38
2018-11-27T10:32:02.518Z,506.25
2018-11-27T10:33:02.699Z,517.50
2018-11-27T10:34:02.876Z,562.50
2018-11-27T10:35:03.054Z,568.13
2018-11-27T10:36:03.237Z,590.63
2018-11-27T10:37:03.431Z,613.13
2018-11-27T10:38:03.608Z,646.88
2018-11-27T10:39:03.793Z,686.25
2018-11-27T10:40:03.965Z,675.00
2018-11-27T10:41:04.151Z,708.75
2018-11-27T10:42:04.336Z,708.75
2018-11-27T10:43:04.517Z,686.25
2018-11-27T10:44:04.699Z,731.25
2018-11-27T10:45:04.879Z,753.75
2018-11-27T10:46:05.053Z,753.75
2018-11-27T10:47:05.245Z,658.13
2018-11-27T10:48:05.414Z,646.88
2018-11-27T10:49:05.612Z,658.13
2018-11-27T10:50:05.791Z,697.50
2018-11-27T10:51:05.974Z,731.25
2018-11-27T10:52:06.154Z,691.88
2018-11-27T10:53:06.338Z,658.13
2018-11-27T10:54:06.516Z,624.38
2018-11-27T10:55:06.700Z,596.25
2018-11-27T10:56:06.899Z,601.88
2018-11-27T10:57:07.082Z,658.13
2018-11-27T10:58:07.267Z,641.25
2018-11-27T10:59:07.440Z,534.38
2018-11-27T11:00:07.624Z,450.00
2018-11-27T11:01:07.808Z,427.50
2018-11-27T11:02:07.997Z,438.75
2018-11-27T11:03:08.177Z,461.25
2018-11-27T11:04:08.358Z,489.38
2018-11-27T11:05:08.549Z,495.00
2018-11-27T11:06:08.735Z,489.38
2018-11-27T11:07:08.915Z,506.25
2018-11-27T11:08:09.100Z,523.13
2018-11-27T11:09:09.279Z,551.25
2018-11-27T11:10:09.462Z,568.13
2018-11-27T11:11:09.642Z,556.88
2018-11-27T11:12:09.821Z,534.38
2018-11-27T11:13:10.012Z,523.13
2018-11-27T11:14:10.192Z,585.00
2018-11-27T11:15:10.382Z,562.50
2018-11-27T11:16:10.561Z,551.25
2018-11-27T11:17:10.739Z,528.75
2018-11-27T11:18:10.926Z,511.88
2018-11-27T11:19:11.109Z,511.88
2018-11-27T11:20:11.290Z,528.75
2018-11-27T11:21:11.474Z,534.38
2018-11-27T11:22:11.656Z,551.25
2018-11-27T11:23:11.835Z,585.00
2018-11-27T11:24:12.015Z,630.00
2018-11-27T11:25:12.201Z,675.00
2018-11-27T11:26:12.387Z,697.50
2018-11-27T11:27:12.569Z,714.38
2018-11-27T11:28:12.754Z,1321.88
2018-11-27T11:29:12.932Z,928.13
2018-11-27T11:30:13.127Z,708.75
2018-11-27T11:31:13.313Z,663.75
2018-11-27T11:32:13.497Z,641.25
2018-11-27T11:33:13.685Z,618.75
2018-11-27T11:34:13.865Z,601.88
2018-11-27T11:35:14.064Z,590.63
2018-11-27T11:36:14.258Z,826.88
2018-11-27T11:37:14.449Z,523.13
2018-11-27T11:38:14.627Z,489.38
2018-11-27T11:39:14.813Z,511.88
2018-11-27T11:40:14.990Z,585.00
2018-11-27T11:41:15.183Z,540.00
2018-11-27T11:42:15.361Z,500.63
2018-11-27T11:43:15.545Z,483.75
2018-11-27T11:44:15.722Z,466.88
2018-11-27T11:45:15.914Z,461.25
2018-11-27T11:46:16.098Z,444.38
2018-11-27T11:47:16.281Z,410.63
2018-11-27T11:48:16.463Z,410.63
2018-11-27T11:49:16.650Z,410.63
2018-11-27T11:50:16.830Z,416.25
2018-11-27T11:51:17.010Z,421.88
2018-11-27T11:52:17.192Z,427.50
2018-11-27T11:53:17.372Z,433.13
2018-11-27T11:54:17.564Z,438.75
2018-11-27T11:55:17.746Z,450.00
2018-11-27T11:56:17.926Z,450.00
2018-11-27T11:57:18.108Z,461.25
2018-11-27T11:58:18.292Z,489.38
2018-11-27T11:59:18.472Z,528.75
2018-11-27T12:00:18.653Z,556.88
2018-11-27T12:01:18.841Z,573.75
2018-11-27T12:02:19.022Z,568.13
2018-11-27T12:03:19.209Z,556.88
2018-11-27T12:04:19.401Z,528.75
2018-11-27T12:05:24.914Z,506.25
2018-11-27T12:06:19.762Z,495.00
2018-11-27T12:07:19.944Z,495.00
2018-11-27T12:08:20.124Z,506.25
2018-11-27T12:09:20.307Z,511.88
2018-11-27T12:10:20.484Z,506.25
2018-11-27T12:11:20.670Z,489.38
2018-11-27T12:12:20.860Z,450.00
2018-11-27T12:13:21.035Z,421.88
2018-11-27T12:14:21.218Z,405.00
2018-11-27T12:15:21.402Z,399.38
2018-11-27T12:16:21.585Z,399.38
2018-11-27T12:17:21.774Z,416.25
2018-11-27T12:18:21.956Z,393.75
2018-11-27T12:19:22.146Z,399.38
2018-11-27T12:20:22.326Z,393.75
2018-11-27T12:21:22.507Z,393.75
2018-11-27T12:22:22.691Z,393.75
2018-11-27T12:23:22.871Z,382.50
2018-11-27T12:24:23.064Z,382.50
2018-11-27T12:25:24.399Z,376.88
2018-11-27T12:26:23.443Z,360.00
2018-11-27T12:27:23.625Z,348.75
2018-11-27T12:28:23.840Z,343.13
2018-11-27T12:29:24.035Z,337.50
2018-11-27T12:30:24.218Z,337.50
2018-11-27T12:31:24.394Z,331.88
2018-11-27T12:32:24.575Z,326.25
2018-11-27T12:33:24.750Z,320.63
2018-11-27T12:34:24.941Z,315.00
2018-11-27T12:35:25.138Z,315.00
2018-11-27T12:36:25.325Z,315.00
2018-11-27T12:37:25.507Z,320.63
2018-11-27T12:38:25.696Z,326.25
2018-11-27T12:39:25.909Z,331.88
2018-11-27T12:40:26.073Z,337.50
2018-11-27T12:41:26.265Z,343.13
2018-11-27T12:42:26.448Z,348.75
2018-11-27T12:43:26.633Z,354.38
2018-11-27T12:44:26.819Z,354.38
2018-11-27T12:45:26.997Z,360.00
2018-11-27T12:46:27.179Z,360.00
2018-11-27T12:47:27.350Z,354.38
2018-11-27T12:48:27.541Z,348.75
2018-11-27T12:49:27.723Z,337.50
2018-11-27T12:50:27.900Z,331.88
2018-11-27T12:51:28.091Z,320.63
2018-11-27T12:52:28.275Z,315.00
2018-11-27T12:53:28.448Z,298.13
2018-11-27T12:54:28.644Z,286.88
2018-11-27T12:55:28.810Z,275.63
2018-11-27T12:56:28.992Z,264.38
2018-11-27T12:57:29.175Z,264.38
2018-11-27T12:58:29.351Z,258.75
2018-11-27T12:59:29.541Z,258.75
2018-11-27T13:00:29.722Z,258.75
2018-11-27T13:01:29.905Z,258.75